D/T METAR WX W/DIR W/SPE G/SPE TEMP DEWP
19/03/19 03:50 EGUB 190350Z AUTO 00000KT 9999 // BKN024/// 06/06 Q1024 N (0°) 6°C 6°C
19/03/19 02:50 EGUB 190250Z AUTO 00000KT 7000 // BKN029/// 06/06 Q1024 N (0°) 6°C 6°C
19/03/19 01:50 EGUB 190150Z AUTO 17001KT 9999 // BKN029/// BKN090/// 06/06 Q1024 S (170°) 1.2mph 6°C 6°C
19/03/19 00:50 EGUB 190050Z AUTO 17003KT 9999 // OVC050/// 06/05 Q1024 S (170°) 3.5mph 6°C 5°C
18/03/19 23:50 EGUB 182350Z AUTO 17004KT 9999 // FEW041/// SCT060/// BKN090/// 06/05 Q1024 S (170°) 4.6mph 6°C 5°C
18/03/19 22:50 EGUB 182250Z AUTO 21003KT 9999 // SCT040/// BKN090/// 07/06 Q1024 SSW (210°) 3.5mph 7°C 6°C
18/03/19 21:50 EGUB 182150Z AUTO 17004KT 9999 // BKN043/// BKN060/// 07/06 Q1024 S (170°) 4.6mph 7°C 6°C
18/03/19 20:50 EGUB 182050Z AUTO 16004KT 9999 // OVC048/// 07/06 Q1023 SSE (160°) 4.6mph 7°C 6°C
18/03/19 19:50 EGUB 181950Z AUTO 16004KT 9999 // FEW033/// BKN048/// 07/06 Q1023 SSE (160°) 4.6mph 7°C 6°C
18/03/19 18:50 EGUB 181850Z AUTO 22004KT 9999 // FEW034/// BKN047/// 07/05 Q1022 SW (220°) 4.6mph 7°C 5°C
18/03/19 17:50 EGUB 181750Z AUTO 26005KT 9999 // SCT022/// BKN070/// 09/05 Q1022 W (260°) 5.8mph 9°C 5°C
18/03/19 16:50 EGUB 181650Z AUTO 27005KT 9999 // FEW041/// BKN050/// 09/05 Q1021 W (270°) 5.8mph 9°C 5°C
18/03/19 15:50 EGUB 181550Z AUTO 25002KT 9999 // FEW035/// BKN041/// 09/06 Q1021 WSW (250°) 2.3mph 9°C 6°C
18/03/19 14:50 EGUB 181450Z AUTO 28003KT 4200 // BKN027/// 07/05 Q1021 W (280°) 3.5mph 7°C 5°C
18/03/19 13:50 EGUB 181350Z AUTO 28006KT 9999 // BKN028/// BKN100/// 09/05 Q1021 W (280°) 6.9mph 9°C 5°C
18/03/19 12:50 EGUB 181250Z AUTO 30009KT 4300 // SCT027/// SCT047/// BKN080/// 07/04 Q1021 WNW (300°) 10.4mph 7°C 4°C
18/03/19 11:50 EGUB 181150Z AUTO 28008KT 9999 // FEW044/// BKN090/// 10/03 Q1021 W (280°) 9.2mph 10°C 3°C
18/03/19 10:50 EGUB 181050Z AUTO 28010KT 9999 // FEW023/// BKN110/// 09/03 Q1021 W (280°) 11.5mph 9°C 3°C
18/03/19 09:50 EGUB 180950Z AUTO 28008KT 9999 // FEW020/// BKN100/// 08/04 Q1021 W (280°) 9.2mph 8°C 4°C
18/03/19 08:50 EGUB 180850Z AUTO 25007KT 9999 // SCT110/// 07/04 Q1020 WSW (250°) 8.1mph 7°C 4°C
18/03/19 07:50 EGUB 180750Z AUTO 23003KT 9999 // BKN120/// 06/03 Q1020 SW (230°) 3.5mph 6°C 3°C
18/03/19 06:50 EGUB 180650Z AUTO 28002KT 9999 // BKN120/// 04/03 Q1019 W (280°) 2.3mph 4°C 3°C
18/03/19 05:50 EGUB 180550Z AUTO 24004KT 9999 // OVC120/// 04/02 Q1019 WSW (240°) 4.6mph 4°C 2°C
18/03/19 04:50 EGUB 180450Z AUTO 26004KT 9999 // BKN140/// 04/01 Q1018 W (260°) 4.6mph 4°C 1°C
18/03/19 03:50 EGUB 180350Z AUTO 29003KT 9999 // SCT160/// 04/01 Q1017 WNW (290°) 3.5mph 4°C 1°C
18/03/19 02:50 EGUB 180250Z AUTO 28007KT 9999 // FEW230/// 04/02 Q1017 W (280°) 8.1mph 4°C 2°C
18/03/19 01:50 EGUB 180150Z AUTO 26004KT 9999 // FEW032/// 04/02 Q1017 W (260°) 4.6mph 4°C 2°C
18/03/19 00:50 EGUB 180050Z AUTO 27007KT 9999 // BKN030/// 06/03 Q1016 W (270°) 8.1mph 6°C 3°C
17/03/19 23:50 EGUB 172350Z AUTO 26007KT 9999 // NCD 05/02 Q1015 W (260°) 8.1mph 5°C 2°C
17/03/19 22:50 EGUB 172250Z AUTO 27007KT 9999 // FEW050/// 06/02 Q1014 W (270°) 8.1mph 6°C 2°C
17/03/19 21:50 EGUB 172150Z AUTO 27007KT 9999 // BKN044/// 06/03 Q1013 W (270°) 8.1mph 6°C 3°C
17/03/19 20:50 EGUB 172050Z AUTO 26004KT 9999 // FEW048/// 05/03 Q1012 W (260°) 4.6mph 5°C 3°C
17/03/19 19:50 EGUB 171950Z AUTO 27005KT 9999 // FEW049/// 05/03 Q1011 W (270°) 5.8mph 5°C 3°C
17/03/19 18:50 EGUB 171850Z AUTO 26009KT 9999 // BKN024/// BKN031/// BKN045/// 06/03 Q1010 W (260°) 10.4mph 6°C 3°C
17/03/19 17:50 EGUB 171750Z AUTO 26011KT 9999 // BKN033/// SCT039/// BKN060/// 06/03 Q1009 W (260°) 12.7mph 6°C 3°C
17/03/19 16:50 EGUB 171650Z AUTO 25015KT 9999 // BKN050/// 08/02 Q1008 WSW (250°) 17.3mph 8°C 2°C
17/03/19 15:50 EGUB 171550Z AUTO 27015KT 9999 // BKN050/// 09/M01 Q1007 W (270°) 17.3mph 9°C -1°C
17/03/19 14:50 EGUB 171450Z AUTO 27014G29KT 9999 // BKN045/// 09/00 Q1006 W (270°) 16.1mph 33.4mph 9°C 0°C
17/03/19 13:50 EGUB 171350Z AUTO 26013KT 9999 // FEW044/// BKN050/// 09/M01 Q1006 W (260°) 15.0mph 9°C -1°C
17/03/19 12:50 EGUB 171250Z AUTO 27015KT 9999 // FEW043/// SCT050/// 07/M00 Q1006 W (270°) 17.3mph 7°C 0°C
17/03/19 11:50 EGUB 171150Z AUTO 27014KT 9999 // FEW038/// BKN050/// 07/M01 Q1006 W (270°) 16.1mph 7°C -1°C
17/03/19 10:50 EGUB 171050Z AUTO 27011KT 9999 // FEW033/// BKN044/// 07/01 Q1006 W (270°) 12.7mph 7°C 1°C
17/03/19 09:50 EGUB 170950Z AUTO 27012KT 9999 // FEW026/// BKN036/// 06/01 Q1005 W (270°) 13.8mph 6°C 1°C
17/03/19 08:50 EGUB 170850Z AUTO 26012KT 9999 // FEW024/// 06/02 Q1004 W (260°) 13.8mph 6°C 2°C
17/03/19 07:50 EGUB 170750Z AUTO 25010KT 9999 // FEW034/// 05/02 Q1003 WSW (250°) 11.5mph 5°C 2°C
17/03/19 06:50 EGUB 170650Z AUTO 24008KT 9999 // NCD 04/01 Q1002 WSW (240°) 9.2mph 4°C 1°C
17/03/19 05:50 EGUB 170550Z AUTO 25009KT 9999 // NCD 04/01 Q1001 WSW (250°) 10.4mph 4°C 1°C
17/03/19 04:50 EGUB 170450Z AUTO 26010KT 9999 // BKN080/// 04/02 Q1000 W (260°) 11.5mph 4°C 2°C
17/03/19 03:50 EGUB 170350Z AUTO 24009KT 9999 // FEW028/// 04/03 Q0999 WSW (240°) 10.4mph 4°C 3°C
17/03/19 02:50 EGUB 170250Z AUTO 25008KT 9999 // FEW029/// 05/03 Q0998 WSW (250°) 9.2mph 5°C 3°C
17/03/19 01:50 EGUB 170150Z AUTO 25009KT 9999 // NCD 06/04 Q0998 WSW (250°) 10.4mph 6°C 4°C
17/03/19 00:50 EGUB 170050Z AUTO 24008KT 9999 // FEW014/// 06/04 Q0997 WSW (240°) 9.2mph 6°C 4°C
16/03/19 23:50 EGUB 162350Z AUTO 25009KT 9999 // FEW044/// 06/05 Q0996 WSW (250°) 10.4mph 6°C 5°C
16/03/19 22:50 EGUB 162250Z AUTO 26010KT 9999 // FEW014/// BKN070/// 07/06 Q0996 W (260°) 11.5mph 7°C 6°C
16/03/19 21:50 EGUB 162150Z AUTO 23013KT 9999 // BKN050/// 08/06 Q0995 SW (230°) 15.0mph 8°C 6°C
16/03/19 20:50 EGUB 162050Z AUTO 24014G25KT 9999 // FEW018/// BKN050/// 08/06 Q0995 WSW (240°) 16.1mph 28.8mph 8°C 6°C
16/03/19 19:50 EGUB 161950Z AUTO 21017KT 9999 // SCT015/// BKN021/// 10/08 Q0994 SSW (210°) 19.6mph 10°C 8°C
16/03/19 18:50 EGUB 161850Z AUTO 21020G30KT 9999 // BKN015/// 10/08 Q0995 SSW (210°) 23.0mph 34.5mph 10°C 8°C
16/03/19 17:50 EGUB 161750Z AUTO 20021G35KT 9999 // OVC017/// 11/07 Q0996 SSW (200°) 24.2mph 40.3mph 11°C 7°C
16/03/19 16:50 EGUB 161650Z AUTO 21022G36KT 9999 // OVC019/// 11/07 Q0996 SSW (210°) 25.3mph 41.4mph 11°C 7°C
16/03/19 15:50 EGUB 161550Z AUTO 21024G38KT 9999 // OVC023/// 11/06 Q0997 SSW (210°) 27.6mph 43.7mph 11°C 6°C
16/03/19 14:50 EGUB 161450Z AUTO 21024G35KT 9999 // BKN025/// SCT042/// 11/06 Q0998 SSW (210°) 27.6mph 40.3mph 11°C 6°C
16/03/19 13:50 EGUB 161350Z AUTO 21028G42KT 9999 // BKN027/// BKN048/// 12/06 Q0999 SSW (210°) 32.2mph 48.3mph 12°C 6°C
16/03/19 12:50 EGUB 161250Z AUTO 22024G35KT 9999 // BKN027/// 12/07 Q1000 SW (220°) 27.6mph 40.3mph 12°C 7°C
16/03/19 11:50 EGUB 161150Z AUTO 21020G33KT 9999 // BKN023/// BKN037/// 11/07 Q1001 SSW (210°) 23.0mph 38.0mph 11°C 7°C
16/03/19 10:50 EGUB 161050Z AUTO 22020KT 9999 // FEW018/// BKN024/// 11/07 Q1002 SW (220°) 23.0mph 11°C 7°C
16/03/19 09:50 EGUB 160950Z AUTO 22019KT 9999 // FEW017/// SCT023/// BKN027/// 11/08 Q1003 SW (220°) 21.9mph 11°C 8°C
16/03/19 08:50 EGUB 160850Z AUTO 22017KT 9999 // BKN021/// SCT029/// 11/07 Q1004 SW (220°) 19.6mph 11°C 7°C
16/03/19 07:50 EGUB 160750Z AUTO 22016KT 9999 // BKN019/// BKN026/// 11/08 Q1004 SW (220°) 18.4mph 11°C 8°C
16/03/19 06:50 EGUB 160650Z AUTO 21016KT 9999 // FEW014/// BKN026/// 10/08 Q1005 SSW (210°) 18.4mph 10°C 8°C
16/03/19 05:50 EGUB 160550Z AUTO 22018KT 9999 // BKN014/// BKN021/// 10/08 Q1005 SW (220°) 20.7mph 10°C 8°C
16/03/19 04:50 EGUB 160450Z AUTO 21017G27KT 9999 // BKN015/// BKN023/// 11/08 Q1005 SSW (210°) 19.6mph 31.1mph 11°C 8°C
16/03/19 03:50 EGUB 160350Z AUTO 21019KT 9999 // BKN014/// SCT021/// 10/08 Q1006 SSW (210°) 21.9mph 10°C 8°C
16/03/19 02:50 EGUB 160250Z AUTO 21016KT 5000 // BKN012/// BKN023/// 10/09 Q1007 SSW (210°) 18.4mph 10°C 9°C
16/03/19 01:50 EGUB 160150Z AUTO 22015KT 9999 // BKN016/// 11/09 Q1008 SW (220°) 17.3mph 11°C 9°C
16/03/19 00:50 EGUB 160050Z AUTO 22013KT 9999 // OVC011/// 11/10 Q1008 SW (220°) 15.0mph 11°C 10°C
15/03/19 23:50 EGUB 152350Z AUTO 21010KT 9999 // OVC007/// 10/09 Q1009 SSW (210°) 11.5mph 10°C 9°C
15/03/19 22:50 EGUB 152250Z AUTO 21008KT 9999 // BKN008/// 10/09 Q1010 SSW (210°) 9.2mph 10°C 9°C
15/03/19 21:50 EGUB 152150Z AUTO 22008KT 9999 // BKN012/// BKN028/// 10/08 Q1010 SW (220°) 9.2mph 10°C 8°C
15/03/19 20:50 EGUB 152050Z AUTO 23009KT 9999 // OVC042/// 10/07 Q1010 SW (230°) 10.4mph 10°C 7°C
15/03/19 19:50 EGUB 151950Z AUTO 24009KT 9999 // OVC050/// 10/07 Q1010 WSW (240°) 10.4mph 10°C 7°C
15/03/19 18:50 EGUB 151850Z AUTO 24011KT 9999 // FEW021/// BKN050/// 11/07 Q1010 WSW (240°) 12.7mph 11°C 7°C
15/03/19 17:50 EGUB 151750Z AUTO 25015KT 9999 // FEW023/// BKN044/// 12/07 Q1009 WSW (250°) 17.3mph 12°C 7°C
15/03/19 16:50 EGUB 151650Z AUTO 26016G27KT 9999 // SCT022/// BKN044/// 12/08 Q1008 W (260°) 18.4mph 31.1mph 12°C 8°C
15/03/19 15:50 EGUB 151550Z 25016G26KT 9999 BKN022 SCT029 13/09 Q1007 WHT TEMPO SCT025 BLU WSW (250°) 18.4mph 29.9mph 13°C 9°C
15/03/19 14:50 EGUB 151450Z 25015G25KT 9999 SCT016 SCT050 13/10 Q1007 WHT TEMPO FEW020 BLU WSW (250°) 17.3mph 28.8mph 13°C 10°C
15/03/19 13:50 EGUB 151350Z 25021G35KT 9999 BKN018 14/10 Q1007 WHT BECMG FEW018 BKN030 BLU WSW (250°) 24.2mph 40.3mph 14°C 10°C
15/03/19 12:50 EGUB 151250Z 25021G36KT 9999 BKN017 BKN024 14/10 Q1006 WHT NOSIG WSW (250°) 24.2mph 41.4mph 14°C 10°C
15/03/19 11:50 EGUB 151150Z 25022G34KT 9999 BKN017 13/10 Q1007 WHT TEMPO SCT025 BLU WSW (250°) 25.3mph 39.1mph 13°C 10°C
15/03/19 10:50 EGUB 151050Z 25019G29KT 9999 BKN016 13/10 Q1006 WHT NOSIG WSW (250°) 21.9mph 33.4mph 13°C 10°C
15/03/19 09:50 EGUB 150950Z 25023KT 9999 BKN015 13/10 Q1006 WHT TEMPO BKN014 GRN WSW (250°) 26.5mph 13°C 10°C
15/03/19 08:50 EGUB 150850Z 24021G33KT 9999 BKN014 12/09 Q1006 GRN BECMG BKN015 WHT WSW (240°) 24.2mph 38.0mph 12°C 9°C
15/03/19 07:50 EGUB 150750Z 25022G36KT 9999 BKN015 12/09 Q1006 WHT TEMPO BKN014 GRN WSW (250°) 25.3mph 41.4mph 12°C 9°C
15/03/19 06:50 EGUB 150650Z 25021G31KT 9999 BKN015 12/09 Q1005 WHT TEMPO BKN014 GRN WSW (250°) 24.2mph 35.7mph 12°C 9°C
15/03/19 05:50 EGUB 150550Z AUTO 25020G32KT 9999 // BKN014/// SCT021/// 11/09 Q1005 WSW (250°) 23.0mph 36.8mph 11°C 9°C
15/03/19 04:50 EGUB 150450Z AUTO 24018KT 9999 // BKN013/// 12/09 Q1005 WSW (240°) 20.7mph 12°C 9°C
15/03/19 03:50 EGUB 150350Z AUTO 24020G32KT 9999 // BKN011/// BKN019/// 12/09 Q1004 WSW (240°) 23.0mph 36.8mph 12°C 9°C
15/03/19 02:50 EGUB 150250Z AUTO 25020G36KT 9999 // OVC010/// 11/09 Q1005 WSW (250°) 23.0mph 41.4mph 11°C 9°C
15/03/19 01:50 EGUB 150150Z AUTO 25018G30KT 9999 // OVC011/// 11/09 Q1005 WSW (250°) 20.7mph 34.5mph 11°C 9°C
15/03/19 00:50 EGUB 150050Z AUTO 25015G26KT 9999 // BKN009/// 11/09 Q1006 WSW (250°) 17.3mph 29.9mph 11°C 9°C
14/03/19 23:50 EGUB 142350Z AUTO 20008KT 4000 // BKN004/// 09/09 Q1007 SSW (200°) 9.2mph 9°C 9°C
14/03/19 22:50 EGUB 142250Z AUTO 22008KT 9999 // SCT036/// BKN050/// 10/07 Q1008 SW (220°) 9.2mph 10°C 7°C
14/03/19 21:50 EGUB 142150Z 21007KT 9999 FEW040 BKN060 09/07 Q1008 BLU BECMG BKN012 GRN SSW (210°) 8.1mph 9°C 7°C
14/03/19 20:50 EGUB 142050Z 22007KT 9999 SCT039 OVC090 09/07 Q1008 BLU NOSIG SW (220°) 8.1mph 9°C 7°C
14/03/19 19:50 EGUB 141950Z 22006KT 9999 BKN044 OVC120 09/04 Q1008 BLU NOSIG SW (220°) 6.9mph 9°C 4°C
14/03/19 18:50 EGUB 141850Z 30001KT 9999 BKN045 OVC300 10/03 Q1008 BLU NOSIG WNW (300°) 1.2mph 10°C 3°C
14/03/19 17:50 EGUB 141750Z 29009KT CAVOK 10/03 Q1007 BLU NOSIG WNW (290°) 10.4mph 10°C 3°C
14/03/19 16:50 EGUB 141650Z 28013G24KT 9999 BKN045 BKN170 12/03 Q1006 BLU NOSIG W (280°) 15.0mph 27.6mph 12°C 3°C
14/03/19 15:50 EGUB 141550Z 30015KT 9999 SCT044 BKN170 12/03 Q1006 BLU NOSIG WNW (300°) 17.3mph 12°C 3°C
14/03/19 14:50 EGUB 141450Z 29016G27KT 9999 VCSH FEW046 SCT055 13/03 Q1005 BLU NOSIG VCSH WNW (290°) 18.4mph 31.1mph 13°C 3°C
14/03/19 13:50 EGUB 141350Z 29019G30KT 9999 SCT040 13/02 Q1004 BLU NOSIG WNW (290°) 21.9mph 34.5mph 13°C 2°C
14/03/19 12:50 EGUB 141250Z 28022G39KT 9999 FEW038 14/04 Q1003 BLU NOSIG W (280°) 25.3mph 44.9mph 14°C 4°C
14/03/19 11:50 EGUB 141150Z 28013G23KT 9999 FEW014TCU SCT250 12/09 Q1002 BLU TEMPO SCT020 WHT W (280°) 15.0mph 26.5mph 12°C 9°C
14/03/19 11:37 EGUB 141137Z 28012G23KT 9999 FEW014TCU BKN033 11/09 Q1002 BLU TEMPO SCT020 WHT W (280°) 13.8mph 26.5mph 11°C 9°C
14/03/19 10:50 EGUB 141050Z 26020G33KT 9999 SCT014TCU BKN030 BKN050 12/10 Q1002 GRN BECMG FEW020 BLU W (260°) 23.0mph 38.0mph 12°C 10°C
14/03/19 10:37 EGUB 141037Z 25023G36KT 4000 -SHRA BKN014 BKN025 11/09 Q1002 GRN BECMG 9999 NSW FEW020 BLU -SHRA WSW (250°) 26.5mph 41.4mph 11°C 9°C
14/03/19 09:50 EGUB 140950Z 25022G33KT 9999 -SHRA SCT015 BKN030 BKN050 12/09 Q1001 WHT TEMPO 5000 +SHRA BKN014TCU GRN -SHRA WSW (250°) 25.3mph 38.0mph 12°C 9°C
14/03/19 08:50 EGUB 140850Z 25022G38KT 9999 BKN016 BKN038 11/08 Q1001 WHT TEMPO 6000 SHRA BKN014 WHT WSW (250°) 25.3mph 43.7mph 11°C 8°C
14/03/19 07:50 EGUB 140750Z 25023G37KT 9999 -RA BKN016 OVC030 10/08 Q1002 WHT TEMPO 7000 RA BKN014 GRN -RA WSW (250°) 26.5mph 42.6mph 10°C 8°C
14/03/19 06:50 EGUB 140650Z 25022G33KT 9999 -RA BKN016 OVC024 10/07 Q1002 WHT TEMPO 7000 RA BKN013 GRN -RA WSW (250°) 25.3mph 38.0mph 10°C 7°C
14/03/19 05:50 EGUB 140550Z AUTO 25018G30KT 9999 // OVC016/// 09/07 Q1004 WSW (250°) 20.7mph 34.5mph 9°C 7°C
14/03/19 04:50 EGUB 140450Z AUTO 24018KT 9999 // BKN019/// 09/06 Q1005 WSW (240°) 20.7mph 9°C 6°C
14/03/19 03:50 EGUB 140350Z AUTO 23015KT 9999 // BKN017/// BKN025/// 08/06 Q1007 SW (230°) 17.3mph 8°C 6°C
14/03/19 02:50 EGUB 140250Z AUTO 23013KT 9999 // BKN020/// 08/05 Q1009 SW (230°) 15.0mph 8°C 5°C
14/03/19 01:50 EGUB 140150Z AUTO 24012KT 9999 // SCT020/// BKN060/// 08/05 Q1011 WSW (240°) 13.8mph 8°C 5°C
14/03/19 00:50 EGUB 140050Z AUTO 24012KT 9999 // FEW042/// BKN090/// 08/04 Q1011 WSW (240°) 13.8mph 8°C 4°C
13/03/19 23:50 EGUB 132350Z AUTO 25012KT 9999 // OVC090/// 08/04 Q1012 WSW (250°) 13.8mph 8°C 4°C
13/03/19 22:50 EGUB 132250Z AUTO 25012KT 9999 // OVC110/// 08/04 Q1013 WSW (250°) 13.8mph 8°C 4°C
13/03/19 21:50 EGUB 132150Z 25012KT 9999 BKN036 OVC120 08/04 Q1013 BLU NOSIG WSW (250°) 13.8mph 8°C 4°C
13/03/19 20:50 EGUB 132050Z 22008KT 9999 SCT040 OVC130 08/03 Q1013 BLU NOSIG SW (220°) 9.2mph 8°C 3°C
13/03/19 19:50 EGUB 131950Z 27011KT CAVOK 08/02 Q1013 BLU NOSIG W (270°) 12.7mph 8°C 2°C
13/03/19 18:50 EGUB 131850Z 26009KT CAVOK 09/01 Q1013 BLU NOSIG W (260°) 10.4mph 9°C 1°C
13/03/19 17:50 EGUB 131750Z 28013KT 9999 FEW040 OVC140 09/01 Q1013 BLU NOSIG W (280°) 15.0mph 9°C 1°C
13/03/19 16:50 EGUB 131650Z 28014KT 9999 FEW040 BKN060 09/01 Q1012 BLU NOSIG W (280°) 16.1mph 9°C 1°C
13/03/19 15:50 EGUB 131550Z 29014G24KT 9999 SCT036 BKN050 10/02 Q1011 BLU NOSIG WNW (290°) 16.1mph 27.6mph 10°C 2°C
13/03/19 14:50 EGUB 131450Z 28020G31KT 9999 FEW024 SCT060 10/03 Q1010 BLU NOSIG W (280°) 23.0mph 35.7mph 10°C 3°C
13/03/19 13:50 EGUB 131350Z 29018G28KT 9999 SCT040 SCT046 10/02 Q1010 BLU NOSIG WNW (290°) 20.7mph 32.2mph 10°C 2°C
13/03/19 12:50 EGUB 131250Z 28016G30KT 9999 SCT038 11/03 Q1009 BLU NOSIG W (280°) 18.4mph 34.5mph 11°C 3°C
13/03/19 11:50 EGUB 131150Z 28022G34KT 9999 SCT036 SCT060 10/02 Q1009 BLU TEMPO 7000 SHRA WHT W (280°) 25.3mph 39.1mph 10°C 2°C
13/03/19 10:50 EGUB 131050Z 27016G29KT 9999 BKN032 BKN040 10/03 Q1008 BLU NOSIG W (270°) 18.4mph 33.4mph 10°C 3°C
13/03/19 09:50 EGUB 130950Z 26018G28KT 9999 BKN029 BKN040 09/04 Q1007 BLU NOSIG W (260°) 20.7mph 32.2mph 9°C 4°C
13/03/19 08:50 EGUB 130850Z 27017KT 9999 SCT034 SCT042 08/04 Q1006 BLU NOSIG W (270°) 19.6mph 8°C 4°C
13/03/19 07:50 EGUB 130750Z 26017KT 9999 BKN033 07/03 Q1005 BLU NOSIG W (260°) 19.6mph 7°C 3°C
13/03/19 06:50 EGUB 130650Z 26016KT 9999 BKN042 07/03 Q1004 BLU NOSIG W (260°) 18.4mph 7°C 3°C